createdAt,value
2019-02-27T00:00:43.818Z,6.18
2019-02-27T00:03:11.276Z,6.14
2019-02-27T00:05:41.811Z,6.30
2019-02-27T00:08:11.559Z,6.21
2019-02-27T00:10:41.134Z,6.22
2019-02-27T00:13:10.418Z,6.22
2019-02-27T00:15:39.735Z,6.13
2019-02-27T00:18:09.017Z,6.02
2019-02-27T00:20:38.396Z,5.94
2019-02-27T00:23:07.715Z,6.03
2019-02-27T00:25:36.992Z,6.03
2019-02-27T00:28:06.296Z,5.89
2019-02-27T00:30:37.925Z,5.93
2019-02-27T00:33:06.863Z,5.93
2019-02-27T00:35:38.663Z,5.76
2019-02-27T00:38:07.193Z,5.69
2019-02-27T00:40:39.326Z,5.68
2019-02-27T00:43:07.471Z,5.65
2019-02-27T00:45:39.633Z,5.66
2019-02-27T00:48:07.752Z,5.62
2019-02-27T00:50:39.198Z,5.66
2019-02-27T00:53:08.136Z,5.67
2019-02-27T00:55:39.301Z,5.75
2019-02-27T00:58:08.431Z,5.86
2019-02-27T01:00:39.358Z,5.56
2019-02-27T01:03:08.861Z,5.56
2019-02-27T01:05:40.954Z,5.42
2019-02-27T01:08:09.138Z,5.45
2019-02-27T01:10:38.516Z,5.55
2019-02-27T01:13:07.909Z,5.43
2019-02-27T01:15:37.350Z,5.36
2019-02-27T01:18:06.672Z,5.31
2019-02-27T01:20:35.977Z,5.31
2019-02-27T01:23:05.333Z,5.39
2019-02-27T01:25:34.772Z,5.25
2019-02-27T01:28:04.358Z,5.33
2019-02-27T01:30:33.712Z,5.36
2019-02-27T01:33:04.153Z,5.17
2019-02-27T01:35:34.127Z,4.97
2019-02-27T01:38:05.322Z,5.02
2019-02-27T01:40:34.707Z,4.98
2019-02-27T01:43:06.341Z,4.95
2019-02-27T01:45:35.270Z,4.90
2019-02-27T01:48:08.953Z,4.89
2019-02-27T01:50:37.212Z,4.74
2019-02-27T01:53:07.325Z,4.82
2019-02-27T01:55:38.115Z,4.85
2019-02-27T01:58:09.507Z,4.88
2019-02-27T02:00:39.062Z,4.96
2019-02-27T02:03:08.344Z,4.83
2019-02-27T02:05:37.716Z,4.78
2019-02-27T02:08:13.616Z,4.74
2019-02-27T02:10:39.714Z,4.75
2019-02-27T02:13:15.145Z,4.69
2019-02-27T02:16:02.579Z,4.96
2019-02-27T02:19:05.327Z,4.92
2019-02-27T02:21:54.264Z,4.90
2019-02-27T02:24:32.693Z,4.73
2019-02-27T02:27:17.138Z,4.91
2019-02-27T02:29:53.128Z,4.63
2019-02-27T02:32:44.267Z,4.81
2019-02-27T02:35:37.381Z,4.75
2019-02-27T02:38:30.540Z,4.64
2019-02-27T02:41:17.317Z,4.65
2019-02-27T02:44:01.548Z,4.38
2019-02-27T02:46:52.082Z,4.43
2019-02-27T02:49:42.608Z,4.60
2019-02-27T02:52:13.603Z,4.62
2019-02-27T02:55:14.541Z,4.66
2019-02-27T02:57:46.889Z,4.61
2019-02-27T03:00:46.366Z,4.39
2019-02-27T03:03:24.207Z,4.17
2019-02-27T03:06:15.702Z,4.21
2019-02-27T03:09:04.419Z,4.08
2019-02-27T03:12:01.036Z,3.96
2019-02-27T03:14:33.361Z,3.89
2019-02-27T03:17:17.970Z,3.98
2019-02-27T03:19:51.416Z,3.88
2019-02-27T03:22:44.267Z,3.83
2019-02-27T03:25:47.963Z,3.82
2019-02-27T03:28:32.123Z,3.88
2019-02-27T03:31:18.040Z,3.86
2019-02-27T03:34:05.520Z,3.90
2019-02-27T03:36:35.993Z,3.90
2019-02-27T03:39:12.261Z,4.02
2019-02-27T03:42:07.218Z,4.19
2019-02-27T03:44:42.432Z,4.03
2019-02-27T03:47:20.354Z,4.10
2019-02-27T03:50:04.693Z,4.05
2019-02-27T03:52:53.709Z,3.98
2019-02-27T03:55:34.655Z,3.94
2019-02-27T03:58:30.683Z,3.92
2019-02-27T04:01:19.992Z,3.94
2019-02-27T04:04:21.145Z,3.80
2019-02-27T04:07:10.385Z,3.93
2019-02-27T04:09:40.766Z,3.99
2019-02-27T04:12:10.138Z,3.91
2019-02-27T04:14:42.059Z,3.90
2019-02-27T04:17:10.477Z,3.92
2019-02-27T04:19:40.475Z,3.59
2019-02-27T04:22:10.256Z,3.55
2019-02-27T04:24:39.710Z,3.65
2019-02-27T04:27:09.008Z,3.65
2019-02-27T04:29:41.129Z,3.76
2019-02-27T04:32:12.080Z,3.84
2019-02-27T04:34:40.317Z,3.98
2019-02-27T04:37:09.640Z,3.93
2019-02-27T04:39:38.923Z,3.92
2019-02-27T04:42:08.237Z,3.83
2019-02-27T04:44:38.897Z,3.61
2019-02-27T04:47:09.000Z,3.56
2019-02-27T04:49:38.465Z,3.45
2019-02-27T04:52:07.746Z,3.35
2019-02-27T04:54:41.299Z,3.35
2019-02-27T04:57:08.029Z,3.32
2019-02-27T04:59:37.381Z,3.49
2019-02-27T05:02:06.682Z,3.44
2019-02-27T05:04:36.356Z,3.44
2019-02-27T05:07:05.672Z,3.39
2019-02-27T05:09:34.983Z,3.32
2019-02-27T05:12:04.296Z,3.36
2019-02-27T05:14:33.590Z,3.47
2019-02-27T05:17:02.901Z,3.34
2019-02-27T05:19:32.243Z,3.37
2019-02-27T05:22:01.553Z,3.30
2019-02-27T05:24:30.871Z,3.36
2019-02-27T05:27:00.831Z,3.43
2019-02-27T05:29:30.826Z,3.46
2019-02-27T05:32:00.221Z,3.38
2019-02-27T05:34:29.519Z,3.44
2019-02-27T05:36:58.819Z,3.44
2019-02-27T05:39:28.139Z,3.37
2019-02-27T05:41:57.456Z,3.31
2019-02-27T05:44:26.768Z,3.28
2019-02-27T05:46:56.051Z,3.34
2019-02-27T05:49:27.370Z,3.34
2019-02-27T05:51:56.428Z,3.33
2019-02-27T05:54:25.735Z,3.17
2019-02-27T05:56:55.018Z,3.13
2019-02-27T05:59:24.319Z,3.01
2019-02-27T06:01:53.677Z,2.91
2019-02-27T06:04:25.133Z,2.83
2019-02-27T06:06:54.278Z,2.73
2019-02-27T06:09:23.643Z,2.74
2019-02-27T06:11:53.001Z,2.74
2019-02-27T06:14:22.308Z,2.79
2019-02-27T06:16:51.650Z,2.96
2019-02-27T06:19:21.117Z,3.39
2019-02-27T06:21:50.433Z,3.72
2019-02-27T06:24:19.757Z,3.96
2019-02-27T06:26:49.154Z,3.84
2019-02-27T06:29:18.446Z,3.77
2019-02-27T06:31:47.793Z,3.84
2019-02-27T06:34:17.122Z,4.11
2019-02-27T06:36:46.418Z,4.05
2019-02-27T06:39:15.735Z,4.21
2019-02-27T06:41:47.406Z,4.15
2019-02-27T06:44:16.471Z,4.22
2019-02-27T06:46:45.794Z,4.12
2019-02-27T06:49:18.315Z,4.24
2019-02-27T06:51:46.099Z,4.33
2019-02-27T06:54:18.107Z,4.38
2019-02-27T06:56:46.396Z,4.30
2019-02-27T06:59:17.898Z,4.36
2019-02-27T07:01:47.533Z,4.42
2019-02-27T07:04:17.775Z,4.93
2019-02-27T07:06:47.080Z,5.68
2019-02-27T07:09:16.366Z,6.16
2019-02-27T07:11:48.674Z,6.50
2019-02-27T07:14:16.744Z,6.75
2019-02-27T07:16:46.038Z,6.44
2019-02-27T07:19:15.874Z,6.68
2019-02-27T07:21:46.099Z,6.73
2019-02-27T07:24:15.390Z,6.49
2019-02-27T07:26:44.700Z,6.47
2019-02-27T07:29:21.363Z,6.47
2019-02-27T07:31:45.046Z,6.75
2019-02-27T07:34:14.962Z,6.63
2019-02-27T07:36:44.719Z,6.60
2019-02-27T07:39:14.063Z,6.60
2019-02-27T07:41:43.369Z,6.86
2019-02-27T07:44:12.669Z,6.99
2019-02-27T07:46:41.983Z,7.03
2019-02-27T07:49:11.281Z,6.98
2019-02-27T07:51:40.564Z,7.01
2019-02-27T07:54:09.871Z,6.96
2019-02-27T07:56:39.143Z,7.01
2019-02-27T07:59:08.436Z,7.01
2019-02-27T08:01:43.822Z,6.98
2019-02-27T08:04:09.092Z,7.11
2019-02-27T08:06:38.518Z,7.61
2019-02-27T08:09:07.976Z,7.61
2019-02-27T08:11:37.280Z,7.92
2019-02-27T08:14:06.663Z,8.13
2019-02-27T08:16:37.018Z,8.47
2019-02-27T08:19:08.943Z,8.27
2019-02-27T08:21:37.612Z,8.66
2019-02-27T08:24:07.666Z,8.68
2019-02-27T08:26:37.167Z,8.82
2019-02-27T08:29:06.783Z,8.58
2019-02-27T08:31:36.086Z,8.77
2019-02-27T08:34:05.561Z,9.40
2019-02-27T08:36:34.868Z,9.67
2019-02-27T08:39:05.596Z,9.98
2019-02-27T08:41:34.903Z,10.96
2019-02-27T08:44:04.276Z,12.31
2019-02-27T08:46:36.875Z,13.13
2019-02-27T08:49:05.059Z,13.17
2019-02-27T08:51:34.339Z,13.70
2019-02-27T08:54:03.807Z,14.12
2019-02-27T08:56:33.090Z,14.31
2019-02-27T08:59:05.041Z,13.91
2019-02-27T09:01:33.836Z,13.48
2019-02-27T09:04:03.323Z,13.55
2019-02-27T09:06:32.723Z,13.92
2019-02-27T09:09:02.119Z,14.67
2019-02-27T09:11:31.432Z,14.92
2019-02-27T09:14:00.724Z,15.23
2019-02-27T09:16:30.049Z,16.49
2019-02-27T09:18:59.335Z,16.91
2019-02-27T09:21:28.695Z,15.79
2019-02-27T09:23:57.998Z,15.92
2019-02-27T09:26:27.307Z,16.42
2019-02-27T09:28:56.610Z,17.20
2019-02-27T09:31:25.903Z,17.23
2019-02-27T09:33:55.195Z,16.68
2019-02-27T09:36:24.577Z,16.93
2019-02-27T09:38:57.350Z,17.12
2019-02-27T09:41:24.957Z,17.18
2019-02-27T09:43:54.315Z,16.49
2019-02-27T09:46:23.709Z,16.29
2019-02-27T09:48:52.997Z,16.23
2019-02-27T09:51:22.910Z,15.71
2019-02-27T09:53:52.492Z,15.92
2019-02-27T09:56:21.781Z,16.57
2019-02-27T09:58:51.082Z,17.15
2019-02-27T10:01:20.374Z,18.18
2019-02-27T10:03:51.985Z,18.56
2019-02-27T10:06:21.236Z,19.50
2019-02-27T10:08:50.530Z,21.17
2019-02-27T10:11:22.223Z,22.09
2019-02-27T10:13:50.833Z,21.76
2019-02-27T10:16:20.101Z,21.54
2019-02-27T10:18:49.404Z,21.20
2019-02-27T10:21:18.683Z,20.69
2019-02-27T10:23:47.996Z,20.65
2019-02-27T10:26:19.425Z,20.57
2019-02-27T10:28:48.296Z,19.55
2019-02-27T10:31:17.666Z,19.83
2019-02-27T10:33:46.947Z,20.09
2019-02-27T10:36:16.469Z,20.00
2019-02-27T10:38:45.734Z,20.12
2019-02-27T10:41:15.210Z,21.18
2019-02-27T10:43:44.530Z,21.59
2019-02-27T10:46:13.822Z,22.22
2019-02-27T10:48:43.109Z,22.78
2019-02-27T10:51:12.427Z,21.96
2019-02-27T10:53:41.694Z,22.38
2019-02-27T10:56:11.008Z,22.63
2019-02-27T10:58:40.316Z,23.51
2019-02-27T11:01:09.859Z,23.50
2019-02-27T11:03:39.150Z,23.21
2019-02-27T11:06:08.440Z,23.73
2019-02-27T11:08:37.767Z,25.84
2019-02-27T11:11:08.654Z,27.61
2019-02-27T11:13:38.347Z,26.91
2019-02-27T11:16:07.580Z,26.14
2019-02-27T11:18:37.183Z,25.16
2019-02-27T11:21:06.592Z,25.99
2019-02-27T11:23:35.889Z,26.53
2019-02-27T11:26:05.250Z,27.52
2019-02-27T11:28:34.566Z,27.73
2019-02-27T11:31:03.924Z,28.70
2019-02-27T11:33:33.556Z,26.46
2019-02-27T11:36:05.509Z,28.12
2019-02-27T11:38:34.243Z,28.65
2019-02-27T11:41:03.569Z,28.17
2019-02-27T11:43:32.838Z,28.30
2019-02-27T11:46:02.223Z,28.38
2019-02-27T11:48:31.569Z,27.53
2019-02-27T11:51:00.888Z,27.63
2019-02-27T11:53:30.188Z,27.63
2019-02-27T11:55:59.799Z,27.91
2019-02-27T11:58:29.108Z,27.87
2019-02-27T12:00:58.441Z,29.02
2019-02-27T12:03:27.772Z,29.55
2019-02-27T12:05:57.057Z,29.60
2019-02-27T12:08:26.868Z,29.16
2019-02-27T12:10:56.656Z,25.24
2019-02-27T12:13:26.309Z,25.80
2019-02-27T12:15:55.684Z,28.45
2019-02-27T12:18:25.109Z,29.83
2019-02-27T12:20:54.406Z,30.80
2019-02-27T12:23:23.818Z,31.07
2019-02-27T12:25:53.091Z,30.33
2019-02-27T12:28:23.288Z,30.29
2019-02-27T12:30:52.644Z,30.30
2019-02-27T12:33:21.995Z,28.63
2019-02-27T12:35:51.308Z,30.40
2019-02-27T12:38:20.677Z,30.47
2019-02-27T12:40:50.045Z,30.59
2019-02-27T12:43:19.351Z,31.03
2019-02-27T12:45:48.656Z,30.80
2019-02-27T12:48:17.959Z,30.91
2019-02-27T12:50:47.278Z,29.84
2019-02-27T12:53:20.744Z,28.15
2019-02-27T12:55:47.555Z,27.54
2019-02-27T12:58:16.839Z,27.68
2019-02-27T13:00:46.219Z,25.20
2019-02-27T13:03:15.550Z,24.07
2019-02-27T13:05:44.830Z,25.08
2019-02-27T13:08:16.410Z,28.13
2019-02-27T13:10:45.207Z,25.26
2019-02-27T13:13:14.486Z,24.40
2019-02-27T13:15:43.808Z,27.69
2019-02-27T13:18:13.334Z,29.10
2019-02-27T13:20:42.994Z,29.86
2019-02-27T13:23:13.777Z,30.29
2019-02-27T13:25:43.094Z,29.04
2019-02-27T13:28:14.567Z,30.59
2019-02-27T13:30:43.453Z,30.78
2019-02-27T13:33:12.847Z,30.54
2019-02-27T13:35:42.527Z,29.05
2019-02-27T13:38:11.806Z,27.07
2019-02-27T13:40:41.117Z,27.99
2019-02-27T13:43:10.769Z,26.28
2019-02-27T13:45:40.080Z,24.88
2019-02-27T13:48:09.389Z,24.00
2019-02-27T13:50:38.723Z,24.13
2019-02-27T13:53:08.036Z,23.25
2019-02-27T13:55:37.400Z,22.40
2019-02-27T13:58:06.811Z,22.29
2019-02-27T14:00:38.337Z,21.98
2019-02-27T14:03:12.070Z,22.11
2019-02-27T14:05:39.429Z,21.60
2019-02-27T14:08:09.623Z,21.63
2019-02-27T14:10:38.898Z,21.72
2019-02-27T14:13:09.784Z,20.98
2019-02-27T14:15:39.569Z,21.29
2019-02-27T14:18:08.879Z,21.13
2019-02-27T14:20:38.287Z,20.82
2019-02-27T14:23:08.226Z,20.79
2019-02-27T14:25:37.597Z,20.69
2019-02-27T14:28:07.347Z,20.66
2019-02-27T14:30:48.800Z,20.76
2019-02-27T14:33:19.335Z,20.66
2019-02-27T14:35:49.114Z,20.77
2019-02-27T14:38:21.910Z,20.66
2019-02-27T14:40:49.804Z,20.80
2019-02-27T14:43:19.128Z,20.82
2019-02-27T14:45:48.407Z,21.03
2019-02-27T14:48:18.156Z,20.93
2019-02-27T14:50:49.045Z,20.76
2019-02-27T14:53:19.780Z,20.70
2019-02-27T14:55:49.388Z,20.51
2019-02-27T14:58:18.706Z,20.65
2019-02-27T15:00:48.050Z,20.60
2019-02-27T15:03:17.366Z,20.56
2019-02-27T15:05:46.640Z,20.36
2019-02-27T15:08:15.983Z,20.31
2019-02-27T15:10:45.247Z,20.35
2019-02-27T15:13:14.560Z,20.32
2019-02-27T15:15:44.450Z,20.36
2019-02-27T15:18:15.647Z,20.38
2019-02-27T15:20:44.966Z,20.18
2019-02-27T15:23:14.277Z,20.14
2019-02-27T15:25:43.573Z,20.08
2019-02-27T15:28:12.884Z,20.02
2019-02-27T15:30:46.373Z,19.99
2019-02-27T15:33:13.218Z,19.55
2019-02-27T15:35:42.738Z,19.73
2019-02-27T15:38:12.462Z,19.63
2019-02-27T15:40:42.218Z,19.90
2019-02-27T15:43:11.769Z,19.91
2019-02-27T15:45:47.538Z,19.91
2019-02-27T15:48:12.545Z,19.95
2019-02-27T15:50:42.308Z,19.74
2019-02-27T15:53:14.579Z,19.63
2019-02-27T15:55:42.619Z,19.46
2019-02-27T15:58:12.010Z,19.37
2019-02-27T16:00:41.373Z,19.44
2019-02-27T16:03:11.993Z,19.41
2019-02-27T16:05:41.670Z,19.47
2019-02-27T16:08:11.140Z,19.33
2019-02-27T16:10:43.723Z,19.23
2019-02-27T16:13:11.419Z,19.15
2019-02-27T16:15:40.801Z,19.07
2019-02-27T16:18:10.063Z,18.97
2019-02-27T16:20:39.362Z,18.92
2019-02-27T16:23:08.846Z,18.86
2019-02-27T16:25:38.599Z,18.87
2019-02-27T16:28:11.330Z,18.83
2019-02-27T16:30:39.024Z,18.80
2019-02-27T16:33:08.331Z,18.74
2019-02-27T16:35:41.548Z,18.66
2019-02-27T16:38:08.695Z,18.52
2019-02-27T16:40:37.995Z,18.40
2019-02-27T16:43:10.350Z,18.28
2019-02-27T16:45:39.382Z,18.16
2019-02-27T16:48:11.097Z,18.14
2019-02-27T16:50:39.727Z,18.07
2019-02-27T16:53:09.093Z,17.93
2019-02-27T16:55:39.606Z,17.83
2019-02-27T16:58:09.350Z,17.63
2019-02-27T17:00:39.051Z,17.46
2019-02-27T17:03:12.935Z,17.33
2019-02-27T17:05:40.263Z,17.13
2019-02-27T17:08:10.683Z,17.03
2019-02-27T17:10:40.887Z,16.89
2019-02-27T17:13:14.414Z,16.67
2019-02-27T17:15:41.440Z,16.34
2019-02-27T17:18:12.808Z,16.47
2019-02-27T17:20:45.823Z,16.32
2019-02-27T17:23:13.467Z,15.98
2019-02-27T17:25:42.912Z,15.66
2019-02-27T17:28:12.344Z,15.55
2019-02-27T17:30:41.675Z,15.89
2019-02-27T17:33:11.068Z,15.80
2019-02-27T17:35:40.369Z,15.68
2019-02-27T17:38:10.912Z,15.60
2019-02-27T17:40:42.678Z,15.46
2019-02-27T17:43:12.086Z,15.32
2019-02-27T17:45:44.265Z,15.30
2019-02-27T17:48:13.223Z,15.17
2019-02-27T17:50:42.574Z,14.96
2019-02-27T17:53:11.866Z,15.08
2019-02-27T17:55:42.489Z,15.02
2019-02-27T17:58:12.003Z,14.91
2019-02-27T18:00:50.038Z,14.68
2019-02-27T18:03:17.147Z,14.68
2019-02-27T18:05:46.543Z,14.53
2019-02-27T18:08:17.069Z,14.50
2019-02-27T18:10:46.774Z,14.47
2019-02-27T18:13:16.065Z,14.33
2019-02-27T18:15:45.365Z,14.16
2019-02-27T18:18:14.903Z,14.02
2019-02-27T18:20:44.222Z,13.91
2019-02-27T18:23:13.813Z,13.75
2019-02-27T18:25:43.281Z,13.60
2019-02-27T18:28:12.564Z,13.56
2019-02-27T18:30:42.747Z,13.44
2019-02-27T18:33:14.276Z,13.13
2019-02-27T18:35:46.054Z,13.19
2019-02-27T18:38:15.461Z,12.79
2019-02-27T18:40:45.013Z,12.73
2019-02-27T18:43:14.602Z,13.01
2019-02-27T18:45:44.285Z,12.65
2019-02-27T18:48:15.141Z,12.52
2019-02-27T18:50:44.732Z,12.57
2019-02-27T18:53:14.261Z,12.66
2019-02-27T18:55:44.142Z,12.69
2019-02-27T18:58:13.632Z,12.72
2019-02-27T19:00:43.051Z,12.74
2019-02-27T19:03:13.031Z,12.05
2019-02-27T19:05:42.474Z,12.23
2019-02-27T19:08:11.918Z,11.93
2019-02-27T19:10:42.533Z,11.92
2019-02-27T19:13:12.386Z,12.01
2019-02-27T19:15:45.457Z,11.93
2019-02-27T19:18:13.139Z,11.98
2019-02-27T19:20:44.876Z,11.86
2019-02-27T19:23:17.136Z,11.67
2019-02-27T19:25:45.967Z,11.46
2019-02-27T19:28:15.278Z,11.39
2019-02-27T19:30:44.999Z,11.30
2019-02-27T19:33:14.492Z,11.51
2019-02-27T19:35:46.583Z,11.26
2019-02-27T19:38:16.013Z,11.35
2019-02-27T19:40:45.700Z,10.98
2019-02-27T19:43:15.230Z,10.89
2019-02-27T19:45:44.911Z,10.74
2019-02-27T19:48:14.495Z,10.85
2019-02-27T19:50:46.195Z,10.71
2019-02-27T19:53:15.137Z,10.65
2019-02-27T19:55:44.619Z,10.90
2019-02-27T19:58:18.167Z,10.80
2019-02-27T20:00:48.272Z,10.79
2019-02-27T20:03:17.148Z,10.75
2019-02-27T20:05:46.747Z,10.68
2019-02-27T20:08:16.203Z,10.58
2019-02-27T20:10:46.011Z,10.40
2019-02-27T20:13:15.741Z,10.54
2019-02-27T20:15:45.702Z,10.18
2019-02-27T20:18:16.569Z,10.28
2019-02-27T20:20:46.001Z,10.37
2019-02-27T20:23:15.932Z,10.10
2019-02-27T20:25:45.266Z,9.83
2019-02-27T20:28:14.585Z,9.63
2019-02-27T20:30:44.123Z,10.05
2019-02-27T20:33:13.680Z,10.04
2019-02-27T20:35:43.160Z,9.78
2019-02-27T20:38:15.984Z,9.74
2019-02-27T20:40:44.053Z,9.67
2019-02-27T20:43:13.458Z,9.81
2019-02-27T20:45:43.619Z,10.00
2019-02-27T20:48:13.234Z,10.16
2019-02-27T20:50:49.411Z,10.06
2019-02-27T20:53:20.954Z,9.77
2019-02-27T20:55:49.893Z,9.60
2019-02-27T20:58:22.079Z,9.46
2019-02-27T21:00:51.139Z,9.44
2019-02-27T21:03:21.203Z,9.39
2019-02-27T21:05:50.508Z,9.04
2019-02-27T21:08:20.360Z,8.94
2019-02-27T21:10:54.730Z,8.83
2019-02-27T21:13:21.608Z,8.83
2019-02-27T21:15:51.067Z,8.79
2019-02-27T21:18:20.435Z,8.69
2019-02-27T21:20:50.907Z,8.69
2019-02-27T21:23:20.839Z,8.61
2019-02-27T21:25:50.338Z,8.45
2019-02-27T21:28:21.313Z,8.45
2019-02-27T21:30:52.399Z,8.41
2019-02-27T21:33:22.601Z,8.58
2019-02-27T21:35:52.222Z,8.70
2019-02-27T21:38:21.949Z,8.47
2019-02-27T21:40:51.397Z,8.44
2019-02-27T21:43:25.202Z,8.38
2019-02-27T21:45:52.063Z,8.41
2019-02-27T21:48:23.558Z,8.43
2019-02-27T21:50:52.765Z,8.24
2019-02-27T21:53:22.154Z,8.27
2019-02-27T21:55:52.046Z,8.08
2019-02-27T21:58:21.601Z,8.19
2019-02-27T22:00:50.906Z,8.21
2019-02-27T22:03:20.314Z,7.90
2019-02-27T22:05:53.007Z,7.85
2019-02-27T22:08:21.174Z,8.01
2019-02-27T22:10:53.710Z,7.79
2019-02-27T22:13:28.945Z,7.68
2019-02-27T22:15:55.901Z,7.61
2019-02-27T22:18:24.216Z,7.54
2019-02-27T22:20:53.809Z,7.60
2019-02-27T22:23:23.083Z,7.53
2019-02-27T22:25:52.379Z,7.32
2019-02-27T22:28:21.647Z,7.56
2019-02-27T22:30:51.043Z,7.64
2019-02-27T22:33:23.056Z,7.36
2019-02-27T22:35:51.614Z,7.43
2019-02-27T22:38:25.815Z,7.36
2019-02-27T22:40:52.068Z,7.29
2019-02-27T22:43:21.982Z,7.21
2019-02-27T22:45:52.341Z,7.21
2019-02-27T22:48:21.625Z,7.02
2019-02-27T22:50:51.031Z,7.36
2019-02-27T22:53:20.740Z,7.20
2019-02-27T22:55:50.131Z,7.24
2019-02-27T22:58:19.783Z,7.33
2019-02-27T23:01:02.126Z,7.20
2019-02-27T23:03:48.965Z,7.09
2019-02-27T23:06:18.392Z,6.86
2019-02-27T23:08:48.956Z,6.99
2019-02-27T23:11:18.694Z,6.99
2019-02-27T23:13:48.815Z,6.97
2019-02-27T23:16:19.408Z,6.97
2019-02-27T23:18:48.769Z,6.70
2019-02-27T23:21:18.682Z,6.63
2019-02-27T23:23:48.017Z,6.60
2019-02-27T23:26:20.146Z,6.59
2019-02-27T23:28:48.466Z,6.59
2019-02-27T23:31:22.448Z,6.56
2019-02-27T23:33:48.804Z,6.65
2019-02-27T23:36:18.150Z,6.63
2019-02-27T23:38:47.452Z,6.63
2019-02-27T23:41:16.732Z,6.55
2019-02-27T23:43:46.010Z,6.52
2019-02-27T23:46:15.660Z,6.46
2019-02-27T23:48:46.659Z,6.46
2019-02-27T23:51:16.908Z,6.34
2019-02-27T23:53:46.524Z,6.19
2019-02-27T23:56:19.347Z,6.21
2019-02-27T23:58:46.826Z,6.16
